Little Valley, Nevada Weather observations

Data are for 10 minute period ending at time listed.
 Day   Time    Ave.   Ave.  Ave.  Vector   Max.   Total    Solar   
  of    of     Air    Rel.  Wind   Wind    Wind  Precip.   Rad.    
Year   Day     Temp.  Hum.  Speed  Dir.    Gust                    
2016   (PST)    F      %     mph   deg.    mph     in.     W/m2    
------------------------------------------------------------------- 
 206    3:00   37.0    72    0.0   171      0.0   16.64       0  
 206    4:00   35.0    75    0.0   190      3.0   16.64       0  
 206    5:00   34.0    82    0.0   259      1.0   16.64       0  
 206    6:00   35.0    81    0.0   259      0.0   16.64      18  
 206    7:00   50.0    56    0.0   240      1.0   16.64     187  
 206    8:00   67.0    44    0.0   132      2.0   16.64     384  
 206    9:00   76.0    17    3.0    46      7.0   16.64     582  
 206   10:00   78.0    14    3.0    94      8.0   16.64     761  
 206   11:00   80.0    13    5.0    52     12.0   16.64     903  
 206   12:00   81.0    13    6.0    44     13.0   16.64     987  
 206   13:00   84.0    11    4.0    95     13.0   16.64    1008  
 206   14:00   84.0    14    4.0   225     13.0   16.64     980  
 206   15:00   83.0    17    7.0   220     14.0   16.64     887  
 206   16:00   82.0    16    6.0   231     15.0   16.64     744  
 206   17:00   80.0    19    7.0   241     19.0   16.64     567  
 206   18:00   77.0    20   12.0   253     23.0   16.64     364  
 206   19:00   73.0    25   13.0   257     23.0   16.64      22  
 206   20:00   71.0    28   11.0   259     23.0   16.64       6  
 206   21:00   69.0    27   10.0   263     23.0   16.64       0  
 206   22:00   67.0    26    9.0   264     25.0   16.64       0  
 206   23:00   67.0    23    9.0   265     24.0   16.64       0  
 207    0:00   67.0    22    9.0   260     24.0   16.64       0  
 207    1:00   67.0    17    7.0   260     19.0   16.64       0  
 207    2:00   66.0    13    6.0   260     18.0   16.64       0  

Return to Little Valley, Nevada graphs page.


Western Regional Climate Center,wrcc@dri.edu